Time;durP1;ratioP1;P1;durP2;ratioP2;P2;SDS_P1;SDS_P2;PMS_P1;PMS_P2;Temp;Humidity;BMP_temperature;BMP_pressure;BME280_temperature;BME280_humidity;BME280_pressure;Samples;Min_cycle;Max_cycle;Signal;HPM_P1;HPM_P2
2021/12/10 00:00:49;;;;;;;;;2.25;2.00;;;;;6.80;67.40;99022.81;5060876;28;45315;-58
2021/12/10 00:03:22;;;;;;;;;1.25;1.25;;;;;6.78;67.49;99020.25;5060461;28;45285;-57
2021/12/10 00:06:10;;;;;;;;;1.50;0.00;;;;;6.74;67.19;99017.75;5060720;28;45291;-56
2021/12/10 00:08:37;;;;;;;;;1.00;1.00;;;;;6.74;67.59;99008.16;5048321;28;45401;-56
2021/12/10 00:11:09;;;;;;;;;1.75;1.50;;;;;6.74;67.74;98995.13;5060084;28;45514;-56
2021/12/10 00:13:36;;;;;;;;;2.25;2.00;;;;;6.75;67.66;98982.91;5050774;28;45255;-57
2021/12/10 00:16:01;;;;;;;;;0.00;0.00;;;;;6.70;67.66;98975.19;5060527;28;45465;-55
2021/12/10 00:18:33;;;;;;;;;1.00;1.00;;;;;6.71;67.89;98948.19;5060614;28;45386;-55
2021/12/10 00:21:00;;;;;;;;;1.75;1.75;;;;;6.69;67.90;98949.97;5059113;28;46238;-53
2021/12/10 00:23:29;;;;;;;;;0.75;0.75;;;;;6.66;68.09;98937.88;5060419;28;45196;-54
2021/12/10 00:25:54;;;;;;;;;0.00;0.00;;;;;6.68;68.02;98935.22;5060122;28;45493;-53
2021/12/10 00:28:40;;;;;;;;;1.50;1.00;;;;;6.67;68.05;98928.28;5060382;28;45316;-54
2021/12/10 00:31:43;;;;;;;;;0.75;0.75;;;;;6.69;68.00;98923.03;5060317;28;45501;-52
2021/12/10 00:34:31;;;;;;;;;4.00;1.00;;;;;6.61;68.44;98905.81;5060076;28;45450;-51
2021/12/10 00:37:00;;;;;;;;;0.25;0.25;;;;;6.61;68.38;98884.09;5040263;28;45262;-53
2021/12/10 00:39:36;;;;;;;;;0.75;0.75;;;;;6.60;68.18;98866.72;5059803;28;45555;-52
2021/12/10 00:42:11;;;;;;;;;0.00;0.00;;;;;6.57;68.40;98852.00;5059858;28;46519;-49
2021/12/10 00:44:36;;;;;;;;;1.00;1.00;;;;;6.57;68.50;98843.31;5060109;28;45239;-50
2021/12/10 00:47:03;;;;;;;;;0.50;0.00;;;;;6.53;68.81;98833.84;5059675;28;45243;-51
2021/12/10 00:49:28;;;;;;;;;1.50;1.50;;;;;6.54;68.72;98828.59;5060307;28;45290;-50
2021/12/10 00:51:53;;;;;;;;;0.00;0.00;;;;;6.50;68.81;98838.25;5059896;28;46226;-51
2021/12/10 00:54:20;;;;;;;;;1.00;1.00;;;;;6.47;68.89;98827.06;5060053;28;45419;-50
2021/12/10 00:56:45;;;;;;;;;2.00;2.00;;;;;6.48;68.93;98819.19;5059803;28;45540;-52
2021/12/10 00:59:13;;;;;;;;;1.00;0.00;;;;;6.48;68.99;98831.38;5059287;28;45535;-53
2021/12/10 01:01:41;;;;;;;;;0.25;0.25;;;;;6.45;69.15;98839.28;5057208;28;47119;-53
2021/12/10 01:04:11;;;;;;;;;0.50;0.50;;;;;6.42;69.35;98811.50;5058753;28;45497;-53
2021/12/10 01:06:41;;;;;;;;;0.00;0.00;;;;;6.41;69.22;98804.59;5058658;28;45276;-50
2021/12/10 01:09:16;;;;;;;;;0.00;0.00;;;;;6.45;69.23;98805.34;5058388;28;45375;-51
2021/12/10 01:11:50;;;;;;;;;0.50;0.50;;;;;6.43;69.21;98787.13;5058279;28;45391;-53
2021/12/10 01:14:29;;;;;;;;;0.00;0.00;;;;;6.40;69.39;98768.97;5058300;28;45244;-52
2021/12/10 01:25:26;;;;;;;;;0.50;0.50;;;;;6.35;69.62;98731.69;5058124;28;45385;-52
2021/12/10 01:27:52;;;;;;;;;0.75;0.00;;;;;6.27;69.92;98708.44;5045789;28;45526;-54
2021/12/10 01:30:28;;;;;;;;;1.00;0.00;;;;;6.35;69.69;98721.25;5058537;28;45442;-51
2021/12/10 01:32:58;;;;;;;;;1.00;0.25;;;;;6.31;69.86;98704.88;5069867;27;46220;-53
2021/12/10 01:35:30;;;;;;;;;1.00;1.00;;;;;6.30;70.13;98702.28;5058251;28;45272;-53
2021/12/10 01:37:57;;;;;;;;;0.00;0.00;;;;;6.27;70.09;98705.00;5058505;28;45308;-52
2021/12/10 01:40:26;;;;;;;;;1.00;1.00;;;;;6.30;70.04;98695.31;5057819;28;45438;-53
2021/12/10 01:43:00;;;;;;;;;0.50;0.50;;;;;6.28;70.12;98697.13;5058124;28;46095;-53
2021/12/10 01:45:30;;;;;;;;;0.00;0.00;;;;;6.24;70.17;98685.06;5058162;28;45347;-51
2021/12/10 01:48:00;;;;;;;;;0.50;0.50;;;;;6.28;70.27;98678.00;5058004;28;45415;-53
2021/12/10 01:50:28;;;;;;;;;0.50;0.50;;;;;6.29;70.01;98677.09;5057935;28;45749;-53
2021/12/10 01:52:57;;;;;;;;;2.75;1.25;;;;;6.30;70.09;98676.19;5061192;28;47185;-53
2021/12/10 01:55:26;;;;;;;;;0.00;0.00;;;;;6.25;70.19;98670.25;5063746;28;45322;-51
2021/12/10 01:57:52;;;;;;;;;0.00;0.00;;;;;6.30;70.20;98663.16;5061774;28;45233;-53
2021/12/10 02:00:22;;;;;;;;;0.25;0.00;;;;;6.29;70.52;98662.31;5059908;28;46274;-53
2021/12/10 02:02:49;;;;;;;;;1.00;1.00;;;;;6.27;70.31;98647.59;5074591;28;47192;-50
2021/12/10 02:05:16;;;;;;;;;0.00;0.00;;;;;6.22;70.43;98621.66;5048388;28;45325;-54
2021/12/10 02:07:42;;;;;;;;;2.00;0.00;;;;;6.32;70.39;98643.94;5075152;28;45185;-53
2021/12/10 02:10:09;;;;;;;;;0.25;0.00;;;;;6.29;70.53;98622.31;5061014;28;45315;-52
2021/12/10 02:12:34;;;;;;;;;0.00;0.00;;;;;6.28;70.38;98621.47;5061039;28;45489;-53
2021/12/10 02:15:03;;;;;;;;;1.00;0.00;;;;;6.31;70.55;98630.94;5062377;28;45481;-51
2021/12/10 02:17:36;;;;;;;;;0.00;0.00;;;;;6.36;70.25;98633.44;5061287;28;45318;-53
2021/12/10 02:20:28;;;;;;;;;1.25;0.25;;;;;6.32;70.59;98619.63;5062454;28;45518;-53
2021/12/10 02:22:54;;;;;;;;;0.00;0.00;;;;;6.27;70.42;98600.66;5062116;28;47012;-54
2021/12/10 02:25:24;;;;;;;;;1.00;1.00;;;;;6.32;70.55;98610.03;5062065;28;45458;-53
2021/12/10 02:27:51;;;;;;;;;1.00;0.00;;;;;6.32;70.23;98590.94;5049210;28;45218;-51
2021/12/10 02:30:19;;;;;;;;;1.00;0.25;;;;;6.36;70.71;98599.50;5062145;28;45300;-51
2021/12/10 02:32:44;;;;;;;;;0.00;0.00;;;;;6.36;70.59;98586.47;5062134;28;46160;-52
2021/12/10 02:35:13;;;;;;;;;0.00;0.00;;;;;6.36;70.46;98587.31;5060686;28;45323;-54
2021/12/10 02:37:40;;;;;;;;;0.00;0.00;;;;;6.39;70.65;98581.16;5062466;28;45284;-53
2021/12/10 02:40:10;;;;;;;;;0.00;0.00;;;;;6.39;70.61;98582.00;5061618;28;45433;-53
2021/12/10 02:42:36;;;;;;;;;0.00;0.00;;;;;6.38;70.66;98579.44;5062043;28;46456;-54
2021/12/10 02:45:04;;;;;;;;;1.25;0.25;;;;;6.40;70.81;98562.84;5061895;28;45322;-53
2021/12/10 02:47:29;;;;;;;;;3.25;0.25;;;;;6.43;70.59;98577.56;5057677;28;45179;-53
2021/12/10 02:49:55;;;;;;;;;0.00;0.00;;;;;6.43;70.66;98567.13;5062010;28;45308;-51
2021/12/10 02:52:22;;;;;;;;;3.00;2.00;;;;;6.45;70.84;98560.94;5060697;28;46089;-53
2021/12/10 02:54:47;;;;;;;;;0.00;0.00;;;;;6.45;70.76;98555.72;5061536;28;45162;-51
2021/12/10 02:57:15;;;;;;;;;1.00;1.00;;;;;6.48;70.65;98573.88;5061916;28;45689;-54
2021/12/10 02:59:41;;;;;;;;;0.00;0.00;;;;;6.49;70.73;98565.16;5061842;28;45412;-51
2021/12/10 03:02:12;;;;;;;;;0.00;0.00;;;;;6.52;70.53;98535.50;5060295;28;46264;-54
2021/12/10 03:04:38;;;;;;;;;1.75;1.75;;;;;6.49;70.79;98535.59;5061483;28;45401;-55
2021/12/10 03:07:11;;;;;;;;;0.00;0.00;;;;;6.51;70.68;98536.41;5061861;28;45437;-52
2021/12/10 03:09:39;;;;;;;;;0.00;0.00;;;;;6.53;70.86;98531.13;5061418;28;45376;-54
2021/12/10 03:12:06;;;;;;;;;0.00;0.00;;;;;6.57;70.79;98546.63;5061259;28;46102;-53
2021/12/10 03:14:35;;;;;;;;;0.00;0.00;;;;;6.55;70.72;98537.16;5061328;28;45370;-54
2021/12/10 03:17:07;;;;;;;;;1.00;1.00;;;;;6.63;70.68;98529.94;5061775;28;45462;-53
2021/12/10 03:19:33;;;;;;;;;0.00;0.00;;;;;6.62;70.82;98531.69;5061384;28;45253;-54
2021/12/10 03:21:58;;;;;;;;;3.75;2.00;;;;;6.69;71.05;98523.63;5072998;28;46100;-50
2021/12/10 03:24:27;;;;;;;;;0.75;0.75;;;;;6.70;70.63;98520.13;5063107;27;45349;-54
2021/12/10 03:26:54;;;;;;;;;0.75;0.00;;;;;6.76;70.69;98520.75;5060001;28;45248;-54
2021/12/10 03:29:22;;;;;;;;;0.00;0.00;;;;;6.76;70.87;98523.38;5061157;28;45617;-53
2021/12/10 03:31:48;;;;;;;;;1.00;1.00;;;;;6.78;70.87;98524.19;5061122;28;46351;-53
2021/12/10 03:34:14;;;;;;;;;1.00;1.00;;;;;6.83;70.88;98535.31;5061072;28;45420;-53
2021/12/10 03:36:45;;;;;;;;;0.00;0.00;;;;;6.87;70.80;98538.69;5061428;28;45463;-55
2021/12/10 03:39:12;;;;;;;;;1.00;1.00;;;;;6.91;70.91;98526.38;5059927;28;45328;-53
2021/12/10 03:41:38;;;;;;;;;1.00;1.00;;;;;6.94;70.81;98521.91;5060800;28;47087;-54
2021/12/10 03:44:03;;;;;;;;;0.75;0.75;;;;;6.97;70.84;98528.78;5061252;28;45449;-54
2021/12/10 03:46:29;;;;;;;;;0.00;0.00;;;;;7.01;70.93;98535.59;5056855;28;45163;-51
2021/12/10 03:48:54;;;;;;;;;0.50;0.50;;;;;7.04;71.02;98526.81;5060846;28;45208;-52
2021/12/10 03:51:22;;;;;;;;;0.00;0.00;;;;;7.08;70.95;98531.88;5061115;28;46135;-54
2021/12/10 03:53:48;;;;;;;;;1.50;1.00;;;;;7.13;70.86;98534.31;5060533;28;45265;-54
2021/12/10 03:56:18;;;;;;;;;1.00;1.00;;;;;7.16;70.81;98532.44;5060954;28;45278;-51
2021/12/10 03:58:45;;;;;;;;;1.00;1.00;;;;;7.20;70.92;98530.56;5047769;28;45396;-53
2021/12/10 04:01:13;;;;;;;;;2.00;0.75;;;;;7.25;71.04;98535.66;5060628;28;46475;-54
2021/12/10 04:03:40;;;;;;;;;1.00;1.00;;;;;7.29;70.90;98532.00;5059593;28;46081;-52
2021/12/10 04:06:06;;;;;;;;;0.00;0.00;;;;;7.30;70.88;98529.34;5060693;28;45276;-54
2021/12/10 04:08:32;;;;;;;;;1.25;1.00;;;;;7.37;71.04;98529.97;5059390;28;45792;-54
2021/12/10 04:10:59;;;;;;;;;2.00;2.00;;;;;7.41;71.06;98539.41;5060008;28;46276;-52
2021/12/10 04:13:24;;;;;;;;;2.00;2.00;;;;;7.43;71.02;98528.91;5055609;28;45304;-53
2021/12/10 04:15:50;;;;;;;;;4.25;3.00;;;;;7.49;71.38;98531.28;5060086;28;45193;-55
2021/12/10 04:18:17;;;;;;;;;2.00;1.25;;;;;7.54;71.13;98531.13;5059398;28;45399;-52
2021/12/10 04:20:45;;;;;;;;;2.50;2.50;;;;;7.58;71.53;98533.53;5060322;28;45420;-54
2021/12/10 04:23:14;;;;;;;;;3.75;2.75;;;;;7.63;71.27;98526.41;5060616;28;45450;-54
2021/12/10 04:25:41;;;;;;;;;3.25;2.00;;;;;7.71;71.55;98528.72;5060116;28;45197;-55
2021/12/10 04:28:10;;;;;;;;;5.75;3.75;;;;;7.75;71.76;98532.94;5060438;28;45231;-53
2021/12/10 04:30:40;;;;;;;;;5.00;4.50;;;;;7.83;71.54;98529.19;5060036;28;45448;-55
2021/12/10 04:33:07;;;;;;;;;5.00;2.00;;;;;7.91;71.58;98545.41;5060285;28;45238;-53
2021/12/10 04:35:34;;;;;;;;;5.25;4.00;;;;;7.97;71.70;98539.94;5060310;28;45235;-54
2021/12/10 04:38:00;;;;;;;;;3.25;2.00;;;;;8.03;71.81;98539.72;5060348;28;45726;-55
2021/12/10 04:40:25;;;;;;;;;3.00;3.00;;;;;8.11;71.70;98549.88;5059582;28;45402;-55
2021/12/10 04:42:52;;;;;;;;;5.50;3.00;;;;;8.16;71.93;98550.53;5058794;28;45704;-51
2021/12/10 04:45:18;;;;;;;;;3.75;1.25;;;;;8.21;72.00;98547.75;5060246;28;45270;-52
2021/12/10 04:47:44;;;;;;;;;3.25;2.75;;;;;8.28;72.07;98544.81;5055931;28;45401;-54
2021/12/10 04:50:11;;;;;;;;;3.00;2.00;;;;;8.32;72.16;98545.56;5059702;28;46235;-53
2021/12/10 04:52:37;;;;;;;;;3.00;2.00;;;;;8.41;71.85;98553.03;5060128;28;45319;-52
2021/12/10 04:55:06;;;;;;;;;3.25;3.00;;;;;8.45;72.23;98551.16;5059518;28;45429;-53
2021/12/10 04:57:32;;;;;;;;;2.75;2.00;;;;;8.49;72.16;98546.69;5058857;28;46007;-53
2021/12/10 04:59:57;;;;;;;;;5.00;4.75;;;;;8.54;72.32;98556.06;5059724;28;45665;-54
2021/12/10 05:02:23;;;;;;;;;4.00;3.00;;;;;8.59;71.98;98553.22;5069628;28;45295;-53
2021/12/10 05:04:49;;;;;;;;;2.50;2.00;;;;;8.66;71.94;98559.94;5063582;27;45540;-55
2021/12/10 05:07:16;;;;;;;;;7.50;2.00;;;;;8.69;72.20;98559.81;5059984;28;45233;-54
2021/12/10 05:09:42;;;;;;;;;1.00;1.00;;;;;8.72;72.05;98558.84;5059538;28;45240;-56
2021/12/10 05:12:08;;;;;;;;;5.75;3.75;;;;;8.76;72.29;98566.50;5057992;28;45400;-55
2021/12/10 05:14:34;;;;;;;;;5.75;3.00;;;;;8.79;72.38;98552.41;5056758;28;45311;-55
2021/12/10 05:17:05;;;;;;;;;6.00;5.00;;;;;8.81;72.28;98562.84;5059825;28;45316;-56
2021/12/10 05:19:32;;;;;;;;;6.00;3.00;;;;;8.82;72.11;98569.75;5059552;28;46090;-55
2021/12/10 05:22:01;;;;;;;;;7.25;4.00;;;;;8.86;71.90;98573.97;5059739;28;45240;-54
2021/12/10 05:24:27;;;;;;;;;5.00;3.50;;;;;8.88;72.16;98574.75;5059507;28;45326;-56
2021/12/10 05:26:54;;;;;;;;;5.00;3.50;;;;;8.87;72.09;98581.78;5073470;28;45237;-56
2021/12/10 05:29:20;;;;;;;;;5.75;4.00;;;;;8.91;71.89;98583.34;5063781;27;46069;-55
2021/12/10 05:31:46;;;;;;;;;1.75;1.75;;;;;8.94;71.83;98587.59;5061838;28;45197;-54
2021/12/10 05:34:12;;;;;;;;;5.50;4.00;;;;;8.96;71.74;98593.63;5063233;28;45184;-54
2021/12/10 05:36:38;;;;;;;;;6.50;3.25;;;;;8.97;71.58;98599.72;5063211;28;45226;-55
2021/12/10 05:39:07;;;;;;;;;3.00;3.00;;;;;8.98;71.96;98609.28;5062821;28;45501;-54
2021/12/10 05:41:32;;;;;;;;;5.75;3.00;;;;;9.00;71.25;98621.41;5062738;28;45324;-54
2021/12/10 05:43:58;;;;;;;;;5.00;3.25;;;;;9.01;71.23;98619.66;5063000;28;45476;-57
2021/12/10 05:46:24;;;;;;;;;9.00;3.00;;;;;9.00;71.17;98629.25;5062833;28;45379;-57
2021/12/10 05:48:50;;;;;;;;;2.50;2.50;;;;;9.01;71.40;98633.59;5060839;28;46397;-56
2021/12/10 05:51:15;;;;;;;;;6.00;2.00;;;;;9.02;71.00;98639.66;5062886;28;45246;-56
2021/12/10 05:53:42;;;;;;;;;3.75;3.00;;;;;9.02;71.17;98634.44;5062559;28;45248;-56
2021/12/10 05:56:07;;;;;;;;;2.25;2.00;;;;;9.01;70.97;98640.59;5061544;28;45873;-56
2021/12/10 05:58:33;;;;;;;;;5.00;2.00;;;;;9.01;71.28;98645.84;5062443;28;46122;-56
2021/12/10 06:01:06;;;;;;;;;3.75;3.00;;;;;9.02;71.18;98652.75;5062725;28;45225;-56
2021/12/10 06:03:33;;;;;;;;;2.00;2.00;;;;;9.02;71.15;98663.25;5062589;28;45461;-56
2021/12/10 06:05:59;;;;;;;;;2.50;1.25;;;;;9.01;71.10;98654.53;5068364;28;45427;-57
2021/12/10 06:08:25;;;;;;;;;2.00;2.00;;;;;9.02;71.09;98664.13;5062266;28;46275;-57
2021/12/10 06:10:51;;;;;;;;;2.00;2.00;;;;;9.04;71.12;98671.91;5077713;28;45711;-57
2021/12/10 06:13:17;;;;;;;;;5.75;3.00;;;;;9.04;71.19;98671.91;5052709;28;45410;-56
2021/12/10 06:15:43;;;;;;;;;2.75;2.00;;;;;9.04;70.82;98666.66;5062412;28;45335;-57
2021/12/10 06:18:09;;;;;;;;;5.00;3.25;;;;;9.03;70.92;98678.94;5062447;28;47050;-56
2021/12/10 06:20:39;;;;;;;;;4.50;3.75;;;;;9.05;71.04;98687.56;5060924;28;45309;-57
2021/12/10 06:23:05;;;;;;;;;4.50;3.25;;;;;9.05;70.94;98676.22;5062574;28;45355;-57
2021/12/10 06:25:32;;;;;;;;;5.00;3.50;;;;;9.00;71.06;98680.81;5061964;28;45299;-56
2021/12/10 06:27:57;;;;;;;;;2.00;2.00;;;;;9.01;71.04;98691.22;5060938;28;46566;-56
2021/12/10 06:30:29;;;;;;;;;0.50;0.50;;;;;9.03;71.02;98693.78;5060761;28;45405;-55
2021/12/10 06:32:55;;;;;;;;;2.50;2.25;;;;;9.03;71.01;98696.41;5061071;28;45395;-56
2021/12/10 06:35:23;;;;;;;;;4.00;2.25;;;;;9.07;70.98;98726.81;5063515;28;45349;-57
2021/12/10 06:37:49;;;;;;;;;3.25;3.00;;;;;9.07;71.11;98722.41;5073123;27;46934;-56
2021/12/10 06:40:17;;;;;;;;;6.50;2.00;;;;;9.04;70.94;98713.81;5062115;28;45747;-55
2021/12/10 06:42:43;;;;;;;;;3.00;1.00;;;;;9.07;71.08;98726.81;5073470;27;45229;-57
2021/12/10 06:45:12;;;;;;;;;4.00;2.00;;;;;9.04;70.86;98717.31;5062021;28;45346;-55
2021/12/10 06:47:37;;;;;;;;;3.25;2.00;;;;;8.99;70.82;98721.03;5056729;28;46062;-56
2021/12/10 06:50:06;;;;;;;;;7.25;4.00;;;;;9.04;70.63;98738.28;5061712;28;45299;-56
2021/12/10 06:52:32;;;;;;;;;3.75;2.00;;;;;9.01;70.84;98735.75;5069696;28;45263;-57
2021/12/10 06:54:57;;;;;;;;;5.50;2.00;;;;;9.01;70.45;98742.78;5065842;28;45325;-57
2021/12/10 06:57:23;;;;;;;;;2.00;2.00;;;;;9.01;70.92;98748.03;5062079;28;46651;-57
2021/12/10 06:59:48;;;;;;;;;4.75;3.00;;;;;9.03;70.91;98757.53;5061815;28;45364;-57
2021/12/10 07:02:14;;;;;;;;;1.50;1.50;;;;;9.00;70.59;98767.28;5060843;28;45682;-54
2021/12/10 07:04:41;;;;;;;;;2.50;2.00;;;;;9.01;70.74;98774.22;5061482;28;45539;-56
2021/12/10 07:07:09;;;;;;;;;3.00;3.00;;;;;9.00;70.44;98783.00;5060335;28;46909;-55
2021/12/10 07:09:34;;;;;;;;;2.50;1.25;;;;;9.00;70.85;98789.06;5061296;28;45337;-53
2021/12/10 07:12:00;;;;;;;;;3.00;2.00;;;;;8.98;70.44;98776.94;5057382;28;45260;-55
2021/12/10 07:14:25;;;;;;;;;3.00;1.00;;;;;8.99;70.67;98795.22;5061552;28;45418;-54
2021/12/10 07:16:51;;;;;;;;;3.00;0.75;;;;;8.98;70.49;98808.38;5061479;28;46004;-55
2021/12/10 07:19:17;;;;;;;;;2.25;1.00;;;;;8.97;70.40;98814.53;5060186;28;45178;-55
2021/12/10 07:21:44;;;;;;;;;1.50;1.50;;;;;8.96;70.50;98844.28;5061694;28;45268;-52
2021/12/10 07:24:13;;;;;;;;;2.00;2.00;;;;;8.96;70.03;98839.03;5061222;28;46224;-57
2021/12/10 07:26:40;;;;;;;;;4.50;1.00;;;;;8.92;70.26;98841.75;5053310;28;47316;-55
2021/12/10 07:29:07;;;;;;;;;3.75;3.00;;;;;8.91;70.51;98852.31;5064189;28;45266;-58
2021/12/10 07:31:34;;;;;;;;;1.50;1.00;;;;;8.82;70.26;98843.03;5061511;28;45224;-58
2021/12/10 07:34:00;;;;;;;;;0.25;0.25;;;;;8.88;70.11;98847.16;5061072;28;45403;-56
2021/12/10 07:36:26;;;;;;;;;3.00;1.00;;;;;8.86;70.10;98862.09;5061231;28;45486;-57
2021/12/10 07:38:52;;;;;;;;;2.00;0.50;;;;;8.81;70.17;98857.03;5060880;28;45257;-56
2021/12/10 07:41:19;;;;;;;;;0.25;0.25;;;;;8.84;70.28;98870.03;5058862;28;45398;-55
2021/12/10 07:43:44;;;;;;;;;3.00;0.50;;;;;8.82;69.83;98868.34;5061071;28;45312;-56
2021/12/10 07:46:12;;;;;;;;;3.00;3.00;;;;;8.83;69.94;98883.16;5060912;28;46315;-56
2021/12/10 07:48:39;;;;;;;;;1.00;1.00;;;;;8.81;69.86;98885.84;5057620;28;45302;-55
2021/12/10 07:51:14;;;;;;;;;1.00;1.00;;;;;8.75;69.63;98884.31;5060773;28;45261;-56
2021/12/10 07:53:40;;;;;;;;;1.50;1.50;;;;;8.73;70.04;98896.59;5050250;28;45383;-54
2021/12/10 07:56:08;;;;;;;;;4.25;2.00;;;;;8.73;69.47;98901.84;5060382;28;46145;-54
2021/12/10 07:58:34;;;;;;;;;1.25;1.00;;;;;8.72;69.53;98921.06;5060703;28;45377;-55
2021/12/10 08:01:06;;;;;;;;;1.00;1.00;;;;;8.72;69.60;98928.09;5061040;28;45279;-55
2021/12/10 08:03:31;;;;;;;;;1.25;1.00;;;;;8.69;69.47;98923.81;5060787;28;45295;-53
2021/12/10 08:05:57;;;;;;;;;1.00;0.00;;;;;8.65;69.38;98923.97;5059327;28;46957;-55
2021/12/10 08:08:22;;;;;;;;;2.00;1.25;;;;;8.66;69.33;98938.78;5060660;28;45329;-57
2021/12/10 08:10:48;;;;;;;;;1.00;0.75;;;;;8.64;69.58;98936.22;5060380;28;45467;-54
2021/12/10 08:13:15;;;;;;;;;1.25;1.00;;;;;8.62;69.46;98941.50;5059528;28;45501;-54
2021/12/10 08:15:40;;;;;;;;;1.00;1.00;;;;;8.61;69.25;98958.09;5060531;28;46134;-53
2021/12/10 08:18:06;;;;;;;;;3.50;1.00;;;;;8.57;69.26;98948.66;5059151;28;45289;-54
2021/12/10 08:20:31;;;;;;;;;1.50;1.50;;;;;8.56;69.28;98970.50;5060694;28;45236;-53
2021/12/10 08:22:57;;;;;;;;;2.00;0.25;;;;;8.55;68.89;98971.44;5060744;28;45177;-55
2021/12/10 08:25:25;;;;;;;;;2.00;1.00;;;;;8.53;68.76;98983.72;5060129;28;45307;-54
2021/12/10 08:27:52;;;;;;;;;3.75;1.50;;;;;8.52;68.79;98996.84;5060481;28;45314;-54
2021/12/10 08:30:20;;;;;;;;;1.50;0.75;;;;;8.48;68.78;98993.47;5060447;28;45310;-54
2021/12/10 08:32:46;;;;;;;;;1.25;1.00;;;;;8.44;69.05;98997.94;5059050;28;45389;-55
2021/12/10 08:35:15;;;;;;;;;2.25;0.75;;;;;8.44;68.94;99005.78;5058827;28;46266;-55
2021/12/10 08:37:41;;;;;;;;;3.25;0.50;;;;;8.43;68.84;99014.53;5060403;28;45418;-53
2021/12/10 08:40:11;;;;;;;;;2.50;1.00;;;;;8.43;68.68;99016.31;5060002;28;45366;-55
2021/12/10 08:42:37;;;;;;;;;0.25;0.00;;;;;8.43;68.56;99024.16;5060477;28;45312;-54
2021/12/10 08:45:05;;;;;;;;;2.00;1.00;;;;;8.41;67.95;99018.09;5060022;28;46737;-55
2021/12/10 08:47:31;;;;;;;;;2.00;0.50;;;;;8.38;68.13;99026.94;5060171;28;45469;-54
2021/12/10 08:49:56;;;;;;;;;0.00;0.00;;;;;8.30;67.73;99031.53;5060151;28;45318;-54
2021/12/10 08:52:22;;;;;;;;;0.50;0.25;;;;;8.32;67.90;99045.44;5060114;28;45323;-53
2021/12/10 08:54:48;;;;;;;;;3.75;0.00;;;;;8.31;67.94;99051.56;5059825;28;46198;-54
2021/12/10 08:57:14;;;;;;;;;2.50;2.00;;;;;8.28;67.79;99044.69;5060164;28;45415;-54
2021/12/10 08:59:40;;;;;;;;;1.00;1.00;;;;;8.26;67.76;99059.59;5059959;28;45186;-50
2021/12/10 09:02:10;;;;;;;;;1.00;0.75;;;;;8.23;67.41;99066.69;5059769;28;45560;-53
2021/12/10 09:04:36;;;;;;;;;1.75;1.75;;;;;8.18;67.30;99060.75;5059906;28;45385;-53
2021/12/10 09:07:08;;;;;;;;;1.75;1.00;;;;;8.19;67.44;99085.97;5059975;28;45321;-54
2021/12/10 09:09:36;;;;;;;;;1.00;0.50;;;;;8.18;67.66;99086.91;5059911;28;45157;-54
2021/12/10 09:12:07;;;;;;;;;0.75;0.75;;;;;8.13;67.53;99095.72;5058584;28;45506;-54
2021/12/10 09:14:42;;;;;;;;;0.75;0.00;;;;;8.12;67.24;99098.41;5059777;28;46311;-54
2021/12/10 09:17:09;;;;;;;;;0.75;0.00;;;;;8.11;67.38;99097.56;5059766;28;45403;-54
2021/12/10 09:19:36;;;;;;;;;2.75;1.00;;;;;8.10;67.52;99106.31;5059976;28;45348;-53
2021/12/10 09:22:03;;;;;;;;;5.50;2.00;;;;;8.08;67.11;99109.88;5058407;28;45319;-55
2021/12/10 09:24:29;;;;;;;;;2.00;0.25;;;;;8.07;67.27;99110.75;5059578;28;45579;-49
2021/12/10 09:26:58;;;;;;;;;2.00;1.50;;;;;8.10;66.97;99119.38;5059558;28;45287;-54
2021/12/10 09:29:26;;;;;;;;;3.00;3.00;;;;;8.08;66.89;99129.03;5060084;28;45300;-54
2021/12/10 09:31:52;;;;;;;;;1.25;1.00;;;;;8.07;67.20;99124.69;5059783;28;45411;-55
2021/12/10 09:34:18;;;;;;;;;2.00;0.50;;;;;8.08;67.00;99144.72;5059504;28;45292;-53
2021/12/10 09:36:46;;;;;;;;;1.50;1.50;;;;;8.04;66.95;99137.88;5059431;28;45311;-52
2021/12/10 09:39:14;;;;;;;;;1.25;1.25;;;;;8.07;67.14;99143.00;5058474;28;45279;-53
2021/12/10 09:41:40;;;;;;;;;3.00;1.00;;;;;8.06;67.23;99143.06;5059158;28;45957;-54
2021/12/10 09:44:07;;;;;;;;;3.25;1.00;;;;;8.05;67.11;99151.81;5059429;28;45480;-54
2021/12/10 09:46:38;;;;;;;;;2.75;2.00;;;;;8.07;67.00;99153.47;5059635;28;45370;-52
2021/12/10 09:49:06;;;;;;;;;2.75;2.50;;;;;8.10;67.13;99163.88;5059483;28;45232;-53
2021/12/10 09:51:36;;;;;;;;;2.00;1.00;;;;;8.09;67.29;99162.16;5059412;28;45267;-53
2021/12/10 09:54:10;;;;;;;;;1.00;1.00;;;;;8.10;67.13;99174.34;5059154;28;45217;-54
2021/12/10 09:56:36;;;;;;;;;5.00;2.00;;;;;8.09;67.08;99177.00;5057760;28;45287;-54
2021/12/10 09:59:02;;;;;;;;;3.50;2.00;;;;;8.14;67.13;99170.72;5059429;28;45431;-51
2021/12/10 10:01:35;;;;;;;;;2.75;2.25;;;;;8.14;66.89;99175.94;5059290;28;45213;-53
2021/12/10 10:04:02;;;;;;;;;2.25;2.25;;;;;8.14;66.98;99180.34;5059101;28;46267;-53
2021/12/10 10:06:35;;;;;;;;;3.25;2.50;;;;;8.16;66.85;99182.91;5041384;28;45367;-51
2021/12/10 10:09:01;;;;;;;;;2.00;0.25;;;;;8.20;66.94;99187.13;5058914;28;45417;-55
2021/12/10 10:11:32;;;;;;;;;3.50;2.00;;;;;8.18;66.93;99189.81;5059056;28;45198;-52
2021/12/10 10:13:58;;;;;;;;;1.25;1.25;;;;;8.22;66.78;99186.19;5062175;28;45509;-54
2021/12/10 10:16:26;;;;;;;;;4.00;3.75;;;;;8.26;66.61;99192.19;5062519;28;45302;-53
2021/12/10 10:18:51;;;;;;;;;2.50;1.75;;;;;8.29;67.00;99197.34;5061243;28;45251;-52
2021/12/10 10:21:25;;;;;;;;;3.00;2.00;;;;;8.35;66.86;99210.25;5061199;28;45368;-54
2021/12/10 10:23:51;;;;;;;;;4.50;3.00;;;;;8.37;66.70;99218.91;5060935;28;46496;-54
2021/12/10 10:26:25;;;;;;;;;5.25;2.25;;;;;8.42;66.89;99219.63;5062100;28;45240;-54
2021/12/10 10:28:52;;;;;;;;;4.75;2.50;;;;;8.45;66.57;99219.56;5062519;28;45441;-52
2021/12/10 10:31:22;;;;;;;;;1.00;1.00;;;;;8.46;66.71;99238.75;5062143;28;45490;-55
2021/12/10 10:33:52;;;;;;;;;2.75;1.00;;;;;8.49;66.66;99235.19;5060943;28;46228;-52
2021/12/10 10:36:23;;;;;;;;;3.00;2.75;;;;;8.50;66.42;99229.91;5060906;28;45506;-53
2021/12/10 10:38:58;;;;;;;;;1.75;1.00;;;;;8.47;66.59;99235.25;5062111;28;45319;-54
2021/12/10 10:41:27;;;;;;;;;6.00;3.00;;;;;8.47;66.47;99231.78;5061915;28;45496;-54
2021/12/10 10:43:55;;;;;;;;;6.75;4.00;;;;;8.48;66.04;99229.09;5062050;28;45408;-53
2021/12/10 10:46:21;;;;;;;;;8.50;2.75;;;;;8.50;66.36;99237.75;5061778;28;45243;-54
2021/12/10 10:48:49;;;;;;;;;1.50;1.00;;;;;8.53;65.91;99228.94;5062101;28;45295;-53
2021/12/10 10:51:24;;;;;;;;;4.00;2.75;;;;;8.46;65.81;99236.13;5062002;28;45393;-54
2021/12/10 10:53:51;;;;;;;;;3.00;2.50;;;;;8.54;66.14;99235.91;5061652;28;47318;-52
2021/12/10 10:56:31;;;;;;;;;5.25;2.00;;;;;8.54;66.14;99242.00;5061678;28;45155;-51
2021/12/10 10:59:01;;;;;;;;;5.25;2.00;;;;;8.58;66.07;99240.16;5061980;28;45308;-54
2021/12/10 11:01:37;;;;;;;;;11.00;4.50;;;;;8.64;66.00;99252.19;5061692;28;45883;-51
2021/12/10 11:04:14;;;;;;;;;5.00;2.75;;;;;8.68;65.87;99245.97;5061454;28;46324;-48
2021/12/10 11:06:45;;;;;;;;;2.00;2.00;;;;;8.73;65.87;99251.91;5061756;28;45387;-51
2021/12/10 11:09:27;;;;;;;;;3.00;1.00;;;;;8.77;65.52;99266.66;5061794;28;45221;-54
2021/12/10 11:11:56;;;;;;;;;6.50;3.75;;;;;8.85;65.22;99255.94;5061467;28;45457;-55
2021/12/10 11:14:40;;;;;;;;;5.00;3.00;;;;;8.92;65.50;99266.19;5061425;28;45280;-53
2021/12/10 11:17:08;;;;;;;;;6.00;2.00;;;;;9.01;65.75;99282.53;5061365;28;45256;-52
2021/12/10 11:19:34;;;;;;;;;3.75;3.00;;;;;9.07;65.39;99285.81;5061673;28;45283;-51
2021/12/10 11:22:10;;;;;;;;;4.25;2.25;;;;;9.14;65.50;99288.25;5061449;28;45289;-54
2021/12/10 11:24:51;;;;;;;;;4.75;2.25;;;;;9.17;65.46;99282.88;5061079;28;45322;-54
2021/12/10 11:27:16;;;;;;;;;4.75;3.00;;;;;9.23;65.48;99315.03;5061291;28;45236;-54
2021/12/10 11:29:52;;;;;;;;;1.00;1.00;;;;;9.29;65.02;99300.84;5061534;28;45162;-51
2021/12/10 11:32:29;;;;;;;;;4.25;2.25;;;;;9.30;65.04;99284.22;5061514;28;45196;-50
2021/12/10 11:35:18;;;;;;;;;5.50;2.25;;;;;9.33;64.68;99315.56;5061162;28;46221;-49
2021/12/10 11:37:44;;;;;;;;;2.50;2.25;;;;;9.33;64.65;99322.59;5059851;28;45337;-53
2021/12/10 11:40:36;;;;;;;;;3.00;3.00;;;;;9.36;64.33;99319.88;5076883;28;45306;-51
2021/12/10 11:48:46;;;;;;;;;3.00;2.00;;;;;9.32;63.89;99329.59;5060921;28;45348;-55
2021/12/10 11:51:25;;;;;;;;;5.75;2.25;;;;;9.34;63.88;99335.66;5060944;28;45411;-53
2021/12/10 11:53:55;;;;;;;;;4.00;2.00;;;;;9.36;63.71;99331.22;5061030;28;45492;-53
2021/12/10 11:56:26;;;;;;;;;2.25;2.25;;;;;9.36;63.53;99346.94;5060921;28;46319;-54
2021/12/10 11:59:04;;;;;;;;;2.00;0.00;;;;;9.39;63.40;99335.50;5059712;28;45325;-52
2021/12/10 12:01:30;;;;;;;;;3.50;1.00;;;;;9.43;63.56;99350.22;5060888;28;45350;-54